createdAt,value
2023-11-10T05:02:35.144Z,97.47
2023-11-10T05:05:01.735Z,97.37
2023-11-10T05:07:28.434Z,97.24
2023-11-10T05:09:55.144Z,97.24
2023-11-10T05:12:21.944Z,97.11
2023-11-10T05:14:48.552Z,97.04
2023-11-10T05:17:15.097Z,96.75
2023-11-10T05:19:41.708Z,96.85
2023-11-10T05:22:11.482Z,96.89
2023-11-10T05:24:39.277Z,96.89
2023-11-10T05:27:06.991Z,96.80
2023-11-10T05:29:35.280Z,96.95
2023-11-10T05:32:02.252Z,97.16
2023-11-10T05:34:29.444Z,97.09
2023-11-10T05:36:56.841Z,96.98
2023-11-10T05:39:23.496Z,96.87
2023-11-10T05:41:50.114Z,96.47
2023-11-10T05:44:16.666Z,96.56
2023-11-10T05:46:43.376Z,96.60
2023-11-10T05:49:09.999Z,96.71
2023-11-10T05:51:36.697Z,96.75
2023-11-10T05:54:03.976Z,96.64
2023-11-10T05:56:30.740Z,96.33
2023-11-10T05:58:57.350Z,96.50
2023-11-10T06:01:24.940Z,96.66
2023-11-10T06:03:52.198Z,96.58
2023-11-10T06:06:19.358Z,96.60
2023-11-10T06:08:46.117Z,96.44
2023-11-10T06:11:23.659Z,96.58
2023-11-10T06:13:51.126Z,96.53
2023-11-10T06:16:21.698Z,96.73
2023-11-10T06:18:48.333Z,96.75
2023-11-10T06:21:16.041Z,96.82
2023-11-10T06:23:42.620Z,96.84
2023-11-10T06:26:09.235Z,96.78
2023-11-10T06:28:37.489Z,96.83
2023-11-10T06:31:05.671Z,97.03
2023-11-10T06:33:33.219Z,97.09
2023-11-10T06:36:00.194Z,96.91
2023-11-10T06:38:27.713Z,96.91
2023-11-10T06:40:55.479Z,96.91
2023-11-10T06:43:22.367Z,96.82
2023-11-10T06:45:50.290Z,96.90
2023-11-10T06:48:17.682Z,96.56
2023-11-10T06:50:45.215Z,96.50
2023-11-10T06:53:12.033Z,96.33
2023-11-10T06:55:39.950Z,96.29
2023-11-10T06:58:08.440Z,96.20
2023-11-10T07:00:35.489Z,96.02
2023-11-10T07:03:02.453Z,95.95
2023-11-10T07:05:29.697Z,96.23
2023-11-10T07:07:58.021Z,96.21
2023-11-10T07:10:24.700Z,95.91
2023-11-10T07:12:51.453Z,95.78
2023-11-10T07:15:18.482Z,95.79
2023-11-10T07:17:45.218Z,95.91
2023-11-10T07:20:12.694Z,96.14
2023-11-10T07:22:39.967Z,95.88
2023-11-10T07:25:11.522Z,95.91
2023-11-10T07:27:38.868Z,96.07
2023-11-10T07:30:07.205Z,95.73
2023-11-10T07:32:35.021Z,95.99
2023-11-10T07:35:06.184Z,95.90
2023-11-10T07:37:36.984Z,95.93
2023-11-10T07:40:07.447Z,96.17
2023-11-10T07:42:34.421Z,96.17
2023-11-10T07:45:07.796Z,95.88
2023-11-10T07:47:34.754Z,95.98
2023-11-10T07:50:01.407Z,95.79
2023-11-10T07:52:29.703Z,95.84
2023-11-10T07:54:59.642Z,96.01
2023-11-10T07:57:36.022Z,96.36
2023-11-10T08:00:12.659Z,96.49
2023-11-10T08:02:40.092Z,96.18
2023-11-10T08:05:07.285Z,95.95
2023-11-10T08:07:34.393Z,96.08
2023-11-10T08:10:06.006Z,96.20
2023-11-10T08:12:34.297Z,96.00
2023-11-10T08:15:02.034Z,95.53
2023-11-10T08:17:30.014Z,95.17
2023-11-10T08:20:02.176Z,95.07
2023-11-10T08:22:28.960Z,94.84
2023-11-10T08:24:58.163Z,94.91
2023-11-10T08:27:25.439Z,94.48
2023-11-10T08:29:52.258Z,94.36
2023-11-10T08:32:20.279Z,93.84
2023-11-10T08:34:47.195Z,93.48
2023-11-10T08:37:13.890Z,93.51
2023-11-10T08:39:40.666Z,93.10
2023-11-10T08:42:07.390Z,93.03
2023-11-10T08:44:34.186Z,93.03
2023-11-10T08:47:01.324Z,93.05
2023-11-10T08:49:28.022Z,92.97
2023-11-10T08:51:54.900Z,93.34
2023-11-10T08:54:25.035Z,93.28
2023-11-10T08:56:52.202Z,93.06
2023-11-10T08:59:18.929Z,92.42
2023-11-10T09:01:45.861Z,92.83
2023-11-10T09:04:21.008Z,92.63
2023-11-10T09:06:51.912Z,92.45
2023-11-10T09:09:18.609Z,92.72
2023-11-10T09:11:45.182Z,92.55
2023-11-10T09:14:11.770Z,92.47
2023-11-10T09:16:38.787Z,92.40
2023-11-10T09:19:05.792Z,92.12
2023-11-10T09:21:32.818Z,92.27
2023-11-10T09:23:59.875Z,92.37
2023-11-10T09:26:26.690Z,92.78
2023-11-10T09:28:53.449Z,92.81
2023-11-10T09:31:20.287Z,92.57
2023-11-10T09:33:47.496Z,92.23
2023-11-10T09:36:14.931Z,92.23
2023-11-10T09:38:41.558Z,92.45
2023-11-10T09:41:15.944Z,92.32
2023-11-10T09:43:49.059Z,92.35
2023-11-10T09:46:20.110Z,92.84
2023-11-10T09:48:47.479Z,92.73
2023-11-10T09:51:14.994Z,92.54
2023-11-10T09:53:42.652Z,92.23
2023-11-10T09:56:11.471Z,92.26
2023-11-10T09:58:39.496Z,92.37
2023-11-10T10:01:08.249Z,92.36
2023-11-10T10:03:36.259Z,92.39
2023-11-10T10:06:03.580Z,92.63
2023-11-10T10:08:30.212Z,92.69
2023-11-10T10:10:56.822Z,92.78
2023-11-10T10:13:23.845Z,92.93
2023-11-10T10:15:50.597Z,93.42
2023-11-10T10:18:18.113Z,93.22
2023-11-10T10:20:47.608Z,93.39
2023-11-10T10:23:16.307Z,92.85
2023-11-10T10:25:43.070Z,92.33
2023-11-10T10:28:10.037Z,93.06
2023-11-10T10:30:38.041Z,92.97
2023-11-10T10:33:06.884Z,92.92
2023-11-10T10:35:34.256Z,92.47
2023-11-10T10:38:07.884Z,92.09
2023-11-10T10:40:37.351Z,91.43
2023-11-10T10:43:04.714Z,91.07
2023-11-10T10:45:35.400Z,90.68
2023-11-10T10:48:04.948Z,90.26
2023-11-10T10:50:34.454Z,89.57
2023-11-10T10:53:03.827Z,89.89
2023-11-10T10:55:32.831Z,89.71
2023-11-10T10:58:01.064Z,89.99
2023-11-10T11:00:27.865Z,88.69
2023-11-10T11:03:10.010Z,88.88
2023-11-10T11:05:49.844Z,88.34
2023-11-10T11:08:34.161Z,88.20
2023-11-10T11:11:23.984Z,87.07
2023-11-10T11:14:12.114Z,84.65
2023-11-10T11:17:15.746Z,85.42
2023-11-10T11:19:44.319Z,86.45
2023-11-10T11:22:11.309Z,87.26
2023-11-10T11:24:37.941Z,87.59
2023-11-10T11:27:10.391Z,87.74
2023-11-10T11:29:42.241Z,87.89
2023-11-10T11:32:15.012Z,87.93
2023-11-10T11:34:52.085Z,87.89
2023-11-10T11:37:19.003Z,87.72
2023-11-10T11:39:45.786Z,88.52
2023-11-10T11:42:12.438Z,88.34
2023-11-10T11:44:40.594Z,89.28
2023-11-10T11:47:12.315Z,89.59
2023-11-10T11:49:40.849Z,89.96
2023-11-10T11:52:10.317Z,90.98
2023-11-10T11:54:37.240Z,91.77
2023-11-10T11:57:04.671Z,92.10
2023-11-10T11:59:31.654Z,93.06
2023-11-10T12:01:58.391Z,92.77
2023-11-10T12:04:26.229Z,92.96
2023-11-10T12:06:53.510Z,92.96
2023-11-10T12:09:20.926Z,92.54
2023-11-10T12:11:49.054Z,92.15
2023-11-10T12:14:17.930Z,92.98
2023-11-10T12:16:45.745Z,92.67
2023-11-10T12:19:16.962Z,92.62
2023-11-10T12:21:45.350Z,92.69
2023-11-10T12:24:11.954Z,92.61
2023-11-10T12:26:43.378Z,92.73
2023-11-10T12:29:22.972Z,92.96
2023-11-10T12:31:50.824Z,93.34
2023-11-10T12:34:17.525Z,93.73
2023-11-10T12:36:47.531Z,93.71
2023-11-10T12:39:23.469Z,93.80
2023-11-10T12:41:56.766Z,94.19
2023-11-10T12:44:24.399Z,94.87
2023-11-10T12:47:02.170Z,94.38
2023-11-10T12:49:30.832Z,94.61
2023-11-10T12:52:01.002Z,94.20
2023-11-10T12:54:29.581Z,93.70
2023-11-10T12:56:57.888Z,93.96
2023-11-10T12:59:30.664Z,93.67
2023-11-10T13:02:00.720Z,94.08
2023-11-10T13:04:28.172Z,93.73
2023-11-10T13:07:06.041Z,93.79
2023-11-10T13:09:33.954Z,93.90
2023-11-10T13:12:00.568Z,94.23
2023-11-10T13:14:27.183Z,94.37
2023-11-10T13:16:53.863Z,94.44
2023-11-10T13:19:20.498Z,93.92
2023-11-10T13:21:47.313Z,93.85
2023-11-10T13:24:14.082Z,93.51
2023-11-10T13:26:42.351Z,93.14
2023-11-10T13:29:09.879Z,92.72
2023-11-10T13:31:38.280Z,92.31
2023-11-10T13:34:07.610Z,92.38
2023-11-10T13:36:35.300Z,92.35
2023-11-10T13:39:02.032Z,92.59
2023-11-10T13:41:36.500Z,92.65
2023-11-10T13:44:09.651Z,93.31
2023-11-10T13:46:36.457Z,92.73
2023-11-10T13:49:03.308Z,92.74
2023-11-10T13:51:30.242Z,92.37
2023-11-10T13:53:56.855Z,92.62
2023-11-10T13:56:23.624Z,92.37
2023-11-10T13:58:52.180Z,92.08
2023-11-10T14:01:18.828Z,92.37
2023-11-10T14:03:45.626Z,92.91
2023-11-10T14:06:13.193Z,93.00
2023-11-10T14:08:40.503Z,92.83
2023-11-10T14:11:11.117Z,92.91
2023-11-10T14:13:38.574Z,92.48
2023-11-10T14:16:07.024Z,92.41
2023-11-10T14:18:37.520Z,93.04
2023-11-10T14:21:04.511Z,93.62
2023-11-10T14:23:31.999Z,93.69
2023-11-10T14:25:59.408Z,93.63
2023-11-10T14:28:26.024Z,94.11
2023-11-10T14:30:54.005Z,93.83
2023-11-10T14:33:20.839Z,94.13
2023-11-10T14:35:52.581Z,94.00
2023-11-10T14:38:19.755Z,94.21
2023-11-10T14:40:47.313Z,94.05
2023-11-10T14:43:20.577Z,93.97
2023-11-10T14:45:53.291Z,94.10
2023-11-10T14:48:20.999Z,94.39
2023-11-10T14:50:49.010Z,94.14
2023-11-10T14:53:18.719Z,94.35
2023-11-10T14:55:47.544Z,94.21
2023-11-10T14:58:17.260Z,94.09
2023-11-10T15:00:45.808Z,94.04
2023-11-10T15:03:14.817Z,93.86
2023-11-10T15:05:41.522Z,93.85
2023-11-10T15:08:08.123Z,93.57
2023-11-10T15:10:39.292Z,93.34
2023-11-10T15:13:10.374Z,93.02
2023-11-10T15:15:47.211Z,92.85
2023-11-10T15:18:19.531Z,93.08
2023-11-10T15:20:47.962Z,92.93
2023-11-10T15:23:14.605Z,92.89
2023-11-10T15:25:46.363Z,92.38
2023-11-10T15:28:14.341Z,92.98
2023-11-10T15:30:41.960Z,93.19
2023-11-10T15:33:09.549Z,94.31
2023-11-10T15:35:47.335Z,94.47
2023-11-10T15:38:19.137Z,94.90
2023-11-10T15:40:52.658Z,95.17
2023-11-10T15:43:19.898Z,95.46
2023-11-10T15:45:47.969Z,96.01
2023-11-10T15:48:15.108Z,96.16
2023-11-10T15:50:41.772Z,96.08
2023-11-10T15:53:08.349Z,96.18
2023-11-10T15:55:34.935Z,96.08
2023-11-10T15:58:01.562Z,96.22
2023-11-10T16:00:29.838Z,96.24
2023-11-10T16:02:56.787Z,96.24
2023-11-10T16:05:23.625Z,95.97
2023-11-10T16:07:51.090Z,96.19
2023-11-10T16:10:17.997Z,96.42
2023-11-10T16:12:46.345Z,96.54
2023-11-10T16:15:13.076Z,96.44
2023-11-10T16:17:39.650Z,96.47
2023-11-10T16:20:07.097Z,96.04
2023-11-10T16:22:33.808Z,96.06
2023-11-10T16:25:00.645Z,94.37
2023-11-10T16:27:29.591Z,94.71
2023-11-10T16:29:58.124Z,94.16
2023-11-10T16:32:31.277Z,94.78
2023-11-10T16:34:58.288Z,94.62
2023-11-10T16:37:25.016Z,93.71
2023-11-10T16:39:52.365Z,93.41
2023-11-10T16:42:19.213Z,92.94
2023-11-10T16:44:45.826Z,93.08
2023-11-10T16:47:14.030Z,93.00
2023-11-10T16:49:40.758Z,93.44
2023-11-10T16:52:09.051Z,92.93
2023-11-10T16:54:35.907Z,92.05
2023-11-10T16:57:03.247Z,92.03
2023-11-10T16:59:34.376Z,92.44
2023-11-10T17:02:01.104Z,93.20
2023-11-10T17:04:27.970Z,93.43
2023-11-10T17:06:55.368Z,93.67
2023-11-10T17:09:22.901Z,93.56
2023-11-10T17:11:50.099Z,93.62
2023-11-10T17:14:16.888Z,94.06
2023-11-10T17:16:43.848Z,93.76
2023-11-10T17:19:10.722Z,93.77
2023-11-10T17:21:38.493Z,94.21
2023-11-10T17:24:05.852Z,95.15
2023-11-10T17:26:32.499Z,94.50
2023-11-10T17:29:01.158Z,94.48
2023-11-10T17:31:28.479Z,94.59
2023-11-10T17:33:56.228Z,94.50
2023-11-10T17:36:23.024Z,94.90
2023-11-10T17:38:49.634Z,94.85
2023-11-10T17:41:16.201Z,95.49
2023-11-10T17:43:42.839Z,95.84
2023-11-10T17:46:09.576Z,95.82
2023-11-10T17:48:36.504Z,95.85
2023-11-10T17:51:08.205Z,95.97
2023-11-10T17:53:35.887Z,96.12
2023-11-10T17:56:02.499Z,96.52
2023-11-10T17:58:29.202Z,96.17
2023-11-10T18:00:56.532Z,96.50
2023-11-10T18:03:23.392Z,96.60
2023-11-10T18:05:50.073Z,96.50
2023-11-10T18:08:16.910Z,96.38
2023-11-10T18:10:45.775Z,96.56
2023-11-10T18:13:12.602Z,96.47
2023-11-10T18:15:40.340Z,97.13
2023-11-10T18:18:07.656Z,97.48
2023-11-10T18:20:35.835Z,97.16
2023-11-10T18:23:02.725Z,97.55
2023-11-10T18:25:29.570Z,97.92
2023-11-10T18:27:56.252Z,98.02
2023-11-10T18:30:23.789Z,98.03
2023-11-10T18:32:51.250Z,96.58
2023-11-10T18:35:18.726Z,95.83
2023-11-10T18:37:45.908Z,95.44
2023-11-10T18:40:13.482Z,95.70
2023-11-10T18:42:45.119Z,96.03
2023-11-10T18:45:13.454Z,95.05
2023-11-10T18:47:40.168Z,95.25
2023-11-10T18:50:09.703Z,95.95
2023-11-10T18:52:36.388Z,96.29
2023-11-10T18:55:03.076Z,96.38
2023-11-10T18:57:31.766Z,96.29
2023-11-10T18:59:59.870Z,96.23
2023-11-10T19:02:26.643Z,96.67
2023-11-10T19:04:53.436Z,96.71
2023-11-10T19:07:20.311Z,96.68
2023-11-10T19:09:50.661Z,96.41
2023-11-10T19:12:20.942Z,96.20
2023-11-10T19:14:47.674Z,96.33
2023-11-10T19:17:16.031Z,96.36
2023-11-10T19:19:43.896Z,96.35
2023-11-10T19:22:11.245Z,96.53
2023-11-10T19:24:38.586Z,96.46
2023-11-10T19:27:05.555Z,96.65
2023-11-10T19:29:32.282Z,96.59
2023-11-10T19:31:58.942Z,96.78
2023-11-10T19:34:25.994Z,96.97
2023-11-10T19:36:55.893Z,97.09
2023-11-10T19:39:22.498Z,97.35
2023-11-10T19:41:49.129Z,97.16
2023-11-10T19:44:15.763Z,96.89
2023-11-10T19:46:43.292Z,96.94
2023-11-10T19:49:12.581Z,96.61
2023-11-10T19:56:45.576Z,96.99
2023-11-10T20:01:44.990Z,97.01
2023-11-10T20:04:14.323Z,97.06
2023-11-10T20:06:42.174Z,96.94
2023-11-10T20:09:09.417Z,97.03
2023-11-10T20:11:36.051Z,97.36
2023-11-10T20:14:03.733Z,97.44
2023-11-10T20:16:34.657Z,97.30
2023-11-10T20:19:01.508Z,97.36
2023-11-10T20:21:28.467Z,97.54
2023-11-10T20:23:55.403Z,97.42
2023-11-10T20:26:22.167Z,97.84
2023-11-10T20:28:48.772Z,98.03
2023-11-10T20:31:16.941Z,98.16
2023-11-10T20:33:44.554Z,98.20
2023-11-10T20:36:11.309Z,98.15
2023-11-10T20:38:38.031Z,98.23
2023-11-10T20:41:07.586Z,98.41
2023-11-10T20:43:36.152Z,98.08
2023-11-10T20:46:03.289Z,98.10
2023-11-10T20:48:31.800Z,98.18
2023-11-10T20:51:01.457Z,98.30
2023-11-10T20:53:29.073Z,98.30
2023-11-10T20:55:55.672Z,98.35
2023-11-10T20:58:22.217Z,98.42
2023-11-10T21:00:48.908Z,98.68
2023-11-10T21:03:15.565Z,98.52
2023-11-10T21:05:47.832Z,98.49
2023-11-10T21:08:15.311Z,98.55
2023-11-10T21:10:42.084Z,98.54
2023-11-10T21:13:08.998Z,98.35
2023-11-10T21:15:36.260Z,98.39
2023-11-10T21:18:02.997Z,98.43
2023-11-10T21:20:30.512Z,98.66
2023-11-10T21:22:57.112Z,98.64
2023-11-10T21:25:25.632Z,98.51
2023-11-10T21:27:56.850Z,98.17
2023-11-10T21:30:25.346Z,98.12
2023-11-10T21:32:52.765Z,97.96
2023-11-10T21:35:27.104Z,97.86
2023-11-10T21:37:55.673Z,97.77
2023-11-10T21:40:23.440Z,97.83
2023-11-10T21:42:50.399Z,97.55
2023-11-10T21:45:17.238Z,97.64
2023-11-10T21:47:43.923Z,97.81
2023-11-10T21:50:11.818Z,97.70
2023-11-10T21:52:39.670Z,97.65
2023-11-10T21:55:07.223Z,97.45
2023-11-10T21:57:33.881Z,97.21
2023-11-10T22:00:00.875Z,97.37
2023-11-10T22:02:27.859Z,97.36
2023-11-10T22:04:56.191Z,97.31
2023-11-10T22:07:22.796Z,97.45
2023-11-10T22:09:49.618Z,97.45
2023-11-10T22:12:18.092Z,97.40
2023-11-10T22:14:46.138Z,97.37
2023-11-10T22:17:12.942Z,97.30
2023-11-10T22:19:40.193Z,97.45
2023-11-10T22:22:08.577Z,97.40
2023-11-10T22:24:36.578Z,97.55
2023-11-10T22:27:03.448Z,97.46
2023-11-10T22:29:30.151Z,97.24
2023-11-10T22:31:56.781Z,97.13
2023-11-10T22:34:23.364Z,97.10
2023-11-10T22:36:49.976Z,97.00
2023-11-10T22:39:16.551Z,96.98
2023-11-10T22:41:44.375Z,96.84
2023-11-10T22:44:11.580Z,96.70
2023-11-10T22:46:41.166Z,96.30
2023-11-10T22:49:08.186Z,96.35
2023-11-10T22:51:34.821Z,96.32
2023-11-10T22:54:01.753Z,96.39
2023-11-10T22:56:28.827Z,96.52
2023-11-10T22:58:55.995Z,96.69
2023-11-10T23:01:25.436Z,96.64
2023-11-10T23:03:52.423Z,96.97
2023-11-10T23:06:19.169Z,96.51
2023-11-10T23:08:46.188Z,96.64
2023-11-10T23:11:15.290Z,96.42
2023-11-10T23:13:47.989Z,96.29
2023-11-10T23:16:15.557Z,96.29
2023-11-10T23:18:42.426Z,96.20
2023-11-10T23:21:09.143Z,95.93
2023-11-10T23:23:37.002Z,96.21
2023-11-10T23:26:03.693Z,96.04
2023-11-10T23:28:30.262Z,96.03
2023-11-10T23:30:56.922Z,96.00
2023-11-10T23:33:23.651Z,95.82
2023-11-10T23:35:58.966Z,95.39
2023-11-10T23:38:29.423Z,95.33
2023-11-10T23:40:57.841Z,95.57
2023-11-10T23:43:24.736Z,95.77
2023-11-10T23:45:51.308Z,95.56
2023-11-10T23:48:18.183Z,95.23
2023-11-10T23:50:47.879Z,95.39
2023-11-10T23:53:15.360Z,95.60
2023-11-10T23:55:43.687Z,95.41
2023-11-10T23:58:10.298Z,94.91
